Main page
METAR-TAF:

METAR-TAF

Airports :

Carolina Airport

Carolina, Maranhão, Brazil

latitude: 07-19S, longitude: 047-28W, elevation: 183 m

Current weather observation

The report was made 36 minutes ago, at 13:00 UTC
Wind 3 kt from the North/Northeast
Temperature 29°C
Humidity 66%
Pressure 1015 hPa
Visibility 10 km or more
Broken clouds at a height of 3000 ft
Broken clouds at a height of 10000 ft

METAR: SBCI 201300Z 02003KT 9999 BKN030 BKN100 29/22 Q1015

Time: 10:36 (13:36 UTC)


TAF: missing

Weather observations and forecasts of more than 4000 airports (METAR and TAF reports).

The available stations are represented by yellow and red dots on the map.

Hover mouse over dot to see the name of the station.

Then click to see weather observations and forecasts.

To change the map : click on the green buttons with a black cross to zoom in, on the green button with a dash to zoom out, or on the green arrows for adjacent maps.


METAR-TAF: